sensor_id;sensor_type;location;lat;lon;timestamp;P1;durP1;ratioP1;P2;durP2;ratioP2
39102;SDS011;24847;48.218;16.414;2024-03-23T00:56:55;5.95;;;4.88;;
39102;SDS011;24847;48.218;16.414;2024-03-23T01:01:57;5.97;;;5.07;;
39102;SDS011;24847;48.218;16.414;2024-03-23T01:07:00;5.28;;;4.75;;
39102;SDS011;24847;48.218;16.414;2024-03-23T01:12:03;6.70;;;4.88;;
39102;SDS011;24847;48.218;16.414;2024-03-23T01:17:06;5.57;;;4.90;;
39102;SDS011;24847;48.218;16.414;2024-03-23T01:22:08;7.13;;;4.97;;
39102;SDS011;24847;48.218;16.414;2024-03-23T01:27:12;6.75;;;4.70;;
39102;SDS011;24847;48.218;16.414;2024-03-23T01:32:14;5.03;;;4.57;;
39102;SDS011;24847;48.218;16.414;2024-03-23T01:37:16;5.35;;;4.82;;
39102;SDS011;24847;48.218;16.414;2024-03-23T01:42:20;5.28;;;4.65;;
39102;SDS011;24847;48.218;16.414;2024-03-23T01:47:22;5.20;;;4.68;;
39102;SDS011;24847;48.218;16.414;2024-03-23T01:52:25;5.32;;;4.80;;
39102;SDS011;24847;48.218;16.414;2024-03-23T01:57:29;5.30;;;4.70;;
39102;SDS011;24847;48.218;16.414;2024-03-23T02:02:31;6.28;;;5.07;;
39102;SDS011;24847;48.218;16.414;2024-03-23T02:07:34;5.78;;;5.15;;
39102;SDS011;24847;48.218;16.414;2024-03-23T02:12:37;6.95;;;4.95;;
39102;SDS011;24847;48.218;16.414;2024-03-23T02:17:40;7.55;;;5.43;;
39102;SDS011;24847;48.218;16.414;2024-03-23T02:22:42;7.35;;;5.72;;
39102;SDS011;24847;48.218;16.414;2024-03-23T02:27:45;6.88;;;6.00;;
39102;SDS011;24847;48.218;16.414;2024-03-23T02:32:47;6.70;;;6.00;;
39102;SDS011;24847;48.218;16.414;2024-03-23T02:37:50;7.90;;;6.38;;
39102;SDS011;24847;48.218;16.414;2024-03-23T02:42:54;5.97;;;5.38;;
39102;SDS011;24847;48.218;16.414;2024-03-23T02:47:56;7.05;;;6.32;;
39102;SDS011;24847;48.218;16.414;2024-03-23T02:52:59;6.95;;;6.25;;
39102;SDS011;24847;48.218;16.414;2024-03-23T02:58:02;8.07;;;6.47;;
39102;SDS011;24847;48.218;16.414;2024-03-23T03:03:05;7.10;;;6.38;;
39102;SDS011;24847;48.218;16.414;2024-03-23T03:08:07;8.32;;;6.10;;
39102;SDS011;24847;48.218;16.414;2024-03-23T03:13:10;7.10;;;6.20;;
39102;SDS011;24847;48.218;16.414;2024-03-23T03:18:13;6.80;;;6.10;;
39102;SDS011;24847;48.218;16.414;2024-03-23T03:23:15;6.55;;;5.85;;
39102;SDS011;24847;48.218;16.414;2024-03-23T03:28:19;8.60;;;6.32;;
39102;SDS011;24847;48.218;16.414;2024-03-23T03:33:21;7.45;;;5.97;;
39102;SDS011;24847;48.218;16.414;2024-03-23T03:38:23;7.13;;;6.07;;
39102;SDS011;24847;48.218;16.414;2024-03-23T03:43:27;7.35;;;6.55;;
39102;SDS011;24847;48.218;16.414;2024-03-23T03:48:29;7.35;;;6.20;;
39102;SDS011;24847;48.218;16.414;2024-03-23T03:53:31;6.93;;;6.22;;
39102;SDS011;24847;48.218;16.414;2024-03-23T03:58:35;6.57;;;5.90;;
39102;SDS011;24847;48.218;16.414;2024-03-23T04:03:37;6.28;;;5.65;;
39102;SDS011;24847;48.218;16.414;2024-03-23T04:08:43;7.57;;;5.82;;
39102;SDS011;24847;48.218;16.414;2024-03-23T04:13:47;6.95;;;6.25;;
39102;SDS011;24847;48.218;16.414;2024-03-23T04:18:49;7.28;;;6.50;;
39102;SDS011;24847;48.218;16.414;2024-03-23T04:23:51;7.50;;;5.82;;
39102;SDS011;24847;48.218;16.414;2024-03-23T04:28:55;6.85;;;6.15;;
39102;SDS011;24847;48.218;16.414;2024-03-23T04:33:57;7.15;;;6.20;;
39102;SDS011;24847;48.218;16.414;2024-03-23T04:38:59;7.35;;;6.38;;
39102;SDS011;24847;48.218;16.414;2024-03-23T04:44:04;8.00;;;7.05;;
39102;SDS011;24847;48.218;16.414;2024-03-23T04:49:07;6.32;;;5.70;;
39102;SDS011;24847;48.218;16.414;2024-03-23T04:54:09;6.80;;;6.07;;
39102;SDS011;24847;48.218;16.414;2024-03-23T04:59:12;8.77;;;6.28;;
39102;SDS011;24847;48.218;16.414;2024-03-23T05:04:14;6.50;;;5.80;;
39102;SDS011;24847;48.218;16.414;2024-03-23T05:09:17;6.20;;;5.55;;
39102;SDS011;24847;48.218;16.414;2024-03-23T05:14:21;8.63;;;6.20;;
39102;SDS011;24847;48.218;16.414;2024-03-23T05:19:23;8.50;;;6.45;;
39102;SDS011;24847;48.218;16.414;2024-03-23T05:24:25;7.80;;;6.00;;
39102;SDS011;24847;48.218;16.414;2024-03-23T05:29:30;8.40;;;6.47;;
39102;SDS011;24847;48.218;16.414;2024-03-23T05:34:32;6.93;;;6.22;;
39102;SDS011;24847;48.218;16.414;2024-03-23T05:39:35;8.13;;;6.75;;
39102;SDS011;24847;48.218;16.414;2024-03-23T05:44:38;8.45;;;6.68;;
39102;SDS011;24847;48.218;16.414;2024-03-23T05:49:40;7.70;;;6.28;;
39102;SDS011;24847;48.218;16.414;2024-03-23T05:54:43;6.85;;;6.25;;
39102;SDS011;24847;48.218;16.414;2024-03-23T05:59:46;7.40;;;6.20;;
39102;SDS011;24847;48.218;16.414;2024-03-23T06:04:49;6.20;;;5.55;;
39102;SDS011;24847;48.218;16.414;2024-03-23T06:09:51;6.05;;;5.18;;
39102;SDS011;24847;48.218;16.414;2024-03-23T06:14:54;6.57;;;5.28;;
39102;SDS011;24847;48.218;16.414;2024-03-23T06:19:57;5.78;;;4.95;;
39102;SDS011;24847;48.218;16.414;2024-03-23T06:24:59;7.25;;;5.13;;
39102;SDS011;24847;48.218;16.414;2024-03-23T06:30:03;6.13;;;5.25;;
39102;SDS011;24847;48.218;16.414;2024-03-23T06:35:07;5.88;;;5.30;;
39102;SDS011;24847;48.218;16.414;2024-03-23T06:40:10;6.05;;;5.40;;
39102;SDS011;24847;48.218;16.414;2024-03-23T06:45:14;6.38;;;5.55;;
39102;SDS011;24847;48.218;16.414;2024-03-23T06:50:16;6.15;;;5.30;;
39102;SDS011;24847;48.218;16.414;2024-03-23T06:55:18;5.93;;;4.75;;
39102;SDS011;24847;48.218;16.414;2024-03-23T07:00:22;5.03;;;4.55;;
39102;SDS011;24847;48.218;16.414;2024-03-23T07:05:25;6.40;;;5.25;;
39102;SDS011;24847;48.218;16.414;2024-03-23T07:10:27;5.93;;;5.32;;
39102;SDS011;24847;48.218;16.414;2024-03-23T07:15:31;7.72;;;4.50;;
39102;SDS011;24847;48.218;16.414;2024-03-23T07:20:34;5.45;;;4.95;;
39102;SDS011;24847;48.218;16.414;2024-03-23T07:25:36;5.22;;;4.20;;
39102;SDS011;24847;48.218;16.414;2024-03-23T07:30:40;5.40;;;4.90;;
39102;SDS011;24847;48.218;16.414;2024-03-23T07:35:42;5.10;;;4.60;;
39102;SDS011;24847;48.218;16.414;2024-03-23T07:40:44;6.03;;;4.88;;
39102;SDS011;24847;48.218;16.414;2024-03-23T07:45:52;5.32;;;4.82;;
39102;SDS011;24847;48.218;16.414;2024-03-23T07:50:58;6.18;;;5.10;;
39102;SDS011;24847;48.218;16.414;2024-03-23T07:56:02;5.18;;;4.68;;
39102;SDS011;24847;48.218;16.414;2024-03-23T08:01:10;6.28;;;5.00;;
39102;SDS011;24847;48.218;16.414;2024-03-23T08:06:13;5.22;;;4.60;;
39102;SDS011;24847;48.218;16.414;2024-03-23T08:11:17;5.93;;;5.32;;
39102;SDS011;24847;48.218;16.414;2024-03-23T08:16:20;5.50;;;5.00;;
39102;SDS011;24847;48.218;16.414;2024-03-23T08:21:23;5.25;;;4.75;;
39102;SDS011;24847;48.218;16.414;2024-03-23T08:26:25;4.85;;;4.20;;
39102;SDS011;24847;48.218;16.414;2024-03-23T08:31:29;5.18;;;4.28;;
39102;SDS011;24847;48.218;16.414;2024-03-23T08:36:31;5.22;;;4.60;;
39102;SDS011;24847;48.218;16.414;2024-03-23T08:41:33;4.03;;;3.53;;
39102;SDS011;24847;48.218;16.414;2024-03-23T08:46:36;4.28;;;3.97;;
39102;SDS011;24847;48.218;16.414;2024-03-23T08:51:38;5.60;;;4.07;;
39102;SDS011;24847;48.218;16.414;2024-03-23T08:56:41;3.97;;;3.60;;
39102;SDS011;24847;48.218;16.414;2024-03-23T09:01:44;4.47;;;3.47;;
39102;SDS011;24847;48.218;16.414;2024-03-23T09:06:46;3.20;;;2.90;;
39102;SDS011;24847;48.218;16.414;2024-03-23T09:11:49;4.40;;;2.83;;
39102;SDS011;24847;48.218;16.414;2024-03-23T09:16:52;2.97;;;2.67;;
39102;SDS011;24847;48.218;16.414;2024-03-23T09:21:55;2.65;;;2.30;;
39102;SDS011;24847;48.218;16.414;2024-03-23T09:26:57;2.90;;;2.25;;
39102;SDS011;24847;48.218;16.414;2024-03-23T09:32:01;3.97;;;2.20;;
39102;SDS011;24847;48.218;16.414;2024-03-23T09:37:03;1.80;;;1.70;;
39102;SDS011;24847;48.218;16.414;2024-03-23T09:42:06;1.95;;;1.77;;
39102;SDS011;24847;48.218;16.414;2024-03-23T09:47:09;2.00;;;1.45;;
39102;SDS011;24847;48.218;16.414;2024-03-23T09:52:11;2.53;;;1.63;;
39102;SDS011;24847;48.218;16.414;2024-03-23T09:57:14;2.30;;;1.92;;
39102;SDS011;24847;48.218;16.414;2024-03-23T10:02:17;2.00;;;1.90;;
39102;SDS011;24847;48.218;16.414;2024-03-23T10:07:21;3.35;;;1.90;;
39102;SDS011;24847;48.218;16.414;2024-03-23T10:12:23;1.98;;;1.83;;
39102;SDS011;24847;48.218;16.414;2024-03-23T10:17:27;3.22;;;2.00;;
39102;SDS011;24847;48.218;16.414;2024-03-23T10:22:29;1.90;;;1.70;;
39102;SDS011;24847;48.218;16.414;2024-03-23T10:27:41;3.08;;;1.95;;
39102;SDS011;24847;48.218;16.414;2024-03-23T10:32:45;3.05;;;2.75;;
39102;SDS011;24847;48.218;16.414;2024-03-23T10:37:49;1.85;;;1.75;;
39102;SDS011;24847;48.218;16.414;2024-03-23T10:42:53;2.20;;;1.55;;
39102;SDS011;24847;48.218;16.414;2024-03-23T10:48:02;2.05;;;1.40;;
39102;SDS011;24847;48.218;16.414;2024-03-23T10:53:05;2.70;;;1.90;;
39102;SDS011;24847;48.218;16.414;2024-03-23T10:58:09;2.10;;;1.70;;
39102;SDS011;24847;48.218;16.414;2024-03-23T11:08:39;2.47;;;1.48;;
39102;SDS011;24847;48.218;16.414;2024-03-23T11:13:42;2.20;;;1.40;;
39102;SDS011;24847;48.218;16.414;2024-03-23T11:18:46;1.23;;;0.98;;
39102;SDS011;24847;48.218;16.414;2024-03-23T11:23:48;2.55;;;1.10;;
39102;SDS011;24847;48.218;16.414;2024-03-23T11:28:50;1.15;;;0.85;;
39102;SDS011;24847;48.218;16.414;2024-03-23T11:34:12;2.33;;;1.05;;
39102;SDS011;24847;48.218;16.414;2024-03-23T11:39:15;2.42;;;0.90;;
39102;SDS011;24847;48.218;16.414;2024-03-23T11:44:19;1.23;;;0.80;;
39102;SDS011;24847;48.218;16.414;2024-03-23T11:49:25;1.50;;;1.10;;
39102;SDS011;24847;48.218;16.414;2024-03-23T11:54:28;1.75;;;1.08;;
39102;SDS011;24847;48.218;16.414;2024-03-23T11:59:32;1.60;;;0.90;;
39102;SDS011;24847;48.218;16.414;2024-03-23T12:04:36;1.25;;;0.90;;
39102;SDS011;24847;48.218;16.414;2024-03-23T12:09:40;1.58;;;0.80;;
39102;SDS011;24847;48.218;16.414;2024-03-23T12:14:43;2.10;;;0.88;;
39102;SDS011;24847;48.218;16.414;2024-03-23T12:19:47;3.10;;;1.95;;
39102;SDS011;24847;48.218;16.414;2024-03-23T12:24:50;3.22;;;1.80;;
39102;SDS011;24847;48.218;16.414;2024-03-23T12:29:52;2.67;;;2.47;;
39102;SDS011;24847;48.218;16.414;2024-03-23T12:34:56;1.67;;;1.58;;
39102;SDS011;24847;48.218;16.414;2024-03-23T12:40:04;1.55;;;1.27;;
39102;SDS011;24847;48.218;16.414;2024-03-23T12:45:09;3.65;;;2.03;;
39102;SDS011;24847;48.218;16.414;2024-03-23T12:50:12;6.97;;;3.85;;
39102;SDS011;24847;48.218;16.414;2024-03-23T12:55:15;2.72;;;2.08;;
39102;SDS011;24847;48.218;16.414;2024-03-23T13:00:18;3.88;;;2.30;;
39102;SDS011;24847;48.218;16.414;2024-03-23T13:05:22;4.35;;;2.47;;
39102;SDS011;24847;48.218;16.414;2024-03-23T13:10:24;5.15;;;1.52;;
39102;SDS011;24847;48.218;16.414;2024-03-23T13:15:26;1.33;;;0.82;;
39102;SDS011;24847;48.218;16.414;2024-03-23T13:20:29;0.82;;;0.45;;
39102;SDS011;24847;48.218;16.414;2024-03-23T13:25:32;2.05;;;0.70;;
39102;SDS011;24847;48.218;16.414;2024-03-23T13:30:34;2.58;;;1.05;;
39102;SDS011;24847;48.218;16.414;2024-03-23T13:35:37;1.15;;;1.05;;
39102;SDS011;24847;48.218;16.414;2024-03-23T13:40:39;1.25;;;0.73;;
39102;SDS011;24847;48.218;16.414;2024-03-23T13:45:55;0.95;;;0.45;;
39102;SDS011;24847;48.218;16.414;2024-03-23T13:51:01;1.25;;;0.40;;
39102;SDS011;24847;48.218;16.414;2024-03-23T13:56:04;1.13;;;0.38;;
39102;SDS011;24847;48.218;16.414;2024-03-23T14:01:07;0.73;;;0.60;;
39102;SDS011;24847;48.218;16.414;2024-03-23T14:06:10;1.52;;;1.15;;
39102;SDS011;24847;48.218;16.414;2024-03-23T14:11:12;0.98;;;0.80;;
39102;SDS011;24847;48.218;16.414;2024-03-23T14:16:15;0.88;;;0.47;;
39102;SDS011;24847;48.218;16.414;2024-03-23T14:21:19;0.60;;;0.45;;
39102;SDS011;24847;48.218;16.414;2024-03-23T14:26:21;0.88;;;0.75;;
39102;SDS011;24847;48.218;16.414;2024-03-23T14:31:24;2.47;;;0.70;;
39102;SDS011;24847;48.218;16.414;2024-03-23T14:36:27;0.95;;;0.63;;
39102;SDS011;24847;48.218;16.414;2024-03-23T14:41:29;0.85;;;0.70;;
39102;SDS011;24847;48.218;16.414;2024-03-23T14:46:32;0.90;;;0.68;;
39102;SDS011;24847;48.218;16.414;2024-03-23T14:51:35;0.80;;;0.65;;
39102;SDS011;24847;48.218;16.414;2024-03-23T14:56:37;1.52;;;0.60;;
39102;SDS011;24847;48.218;16.414;2024-03-23T15:01:40;0.80;;;0.70;;
39102;SDS011;24847;48.218;16.414;2024-03-23T15:06:43;0.80;;;0.70;;
39102;SDS011;24847;48.218;16.414;2024-03-23T15:11:46;0.80;;;0.50;;
39102;SDS011;24847;48.218;16.414;2024-03-23T15:16:49;0.60;;;0.50;;
39102;SDS011;24847;48.218;16.414;2024-03-23T15:21:54;1.00;;;0.60;;
39102;SDS011;24847;48.218;16.414;2024-03-23T15:26:56;0.90;;;0.60;;
39102;SDS011;24847;48.218;16.414;2024-03-23T15:31:59;1.23;;;0.70;;
39102;SDS011;24847;48.218;16.414;2024-03-23T15:37:03;0.47;;;0.38;;
39102;SDS011;24847;48.218;16.414;2024-03-23T15:42:05;1.73;;;1.45;;
39102;SDS011;24847;48.218;16.414;2024-03-23T15:47:08;3.22;;;2.33;;
39102;SDS011;24847;48.218;16.414;2024-03-23T15:52:12;4.75;;;2.80;;
39102;SDS011;24847;48.218;16.414;2024-03-23T15:57:14;4.90;;;3.38;;
39102;SDS011;24847;48.218;16.414;2024-03-23T16:02:17;4.38;;;3.45;;
39102;SDS011;24847;48.218;16.414;2024-03-23T16:07:20;2.63;;;1.55;;
39102;SDS011;24847;48.218;16.414;2024-03-23T16:12:23;2.03;;;0.90;;
39102;SDS011;24847;48.218;16.414;2024-03-23T16:17:25;0.73;;;0.50;;
39102;SDS011;24847;48.218;16.414;2024-03-23T16:22:28;0.93;;;0.40;;
39102;SDS011;24847;48.218;16.414;2024-03-23T16:27:30;1.00;;;0.60;;
39102;SDS011;24847;48.218;16.414;2024-03-23T16:32:32;1.50;;;0.50;;
39102;SDS011;24847;48.218;16.414;2024-03-23T16:37:38;0.50;;;0.40;;
39102;SDS011;24847;48.218;16.414;2024-03-23T16:42:41;0.57;;;0.40;;
39102;SDS011;24847;48.218;16.414;2024-03-23T16:47:43;0.90;;;0.38;;
39102;SDS011;24847;48.218;16.414;2024-03-23T16:52:48;3.50;;;2.78;;
39102;SDS011;24847;48.218;16.414;2024-03-23T16:57:50;2.20;;;1.80;;
39102;SDS011;24847;48.218;16.414;2024-03-23T17:02:52;1.20;;;1.02;;
39102;SDS011;24847;48.218;16.414;2024-03-23T17:07:56;0.52;;;0.50;;
39102;SDS011;24847;48.218;16.414;2024-03-23T17:12:58;1.15;;;0.70;;
39102;SDS011;24847;48.218;16.414;2024-03-23T17:18:01;0.70;;;0.60;;
39102;SDS011;24847;48.218;16.414;2024-03-23T17:23:04;1.48;;;1.00;;
39102;SDS011;24847;48.218;16.414;2024-03-23T17:28:07;1.67;;;0.65;;
39102;SDS011;24847;48.218;16.414;2024-03-23T17:33:12;0.88;;;0.60;;
39102;SDS011;24847;48.218;16.414;2024-03-23T17:38:16;0.77;;;0.50;;
39102;SDS011;24847;48.218;16.414;2024-03-23T17:43:19;1.08;;;0.55;;
39102;SDS011;24847;48.218;16.414;2024-03-23T17:48:21;1.67;;;0.60;;
39102;SDS011;24847;48.218;16.414;2024-03-23T17:53:25;0.80;;;0.50;;
39102;SDS011;24847;48.218;16.414;2024-03-23T17:58:27;1.70;;;1.10;;
39102;SDS011;24847;48.218;16.414;2024-03-23T18:03:29;1.00;;;0.70;;
39102;SDS011;24847;48.218;16.414;2024-03-23T18:08:32;1.15;;;0.80;;
39102;SDS011;24847;48.218;16.414;2024-03-23T18:13:36;1.88;;;1.02;;
39102;SDS011;24847;48.218;16.414;2024-03-23T18:18:38;0.85;;;0.75;;
39102;SDS011;24847;48.218;16.414;2024-03-23T18:23:42;0.85;;;0.77;;
39102;SDS011;24847;48.218;16.414;2024-03-23T18:28:48;1.65;;;1.13;;
39102;SDS011;24847;48.218;16.414;2024-03-23T18:33:52;1.85;;;1.30;;
39102;SDS011;24847;48.218;16.414;2024-03-23T18:38:55;1.20;;;0.82;;
39102;SDS011;24847;48.218;16.414;2024-03-23T18:43:57;1.20;;;1.00;;
39102;SDS011;24847;48.218;16.414;2024-03-23T18:49:00;1.27;;;1.00;;
39102;SDS011;24847;48.218;16.414;2024-03-23T18:54:05;2.20;;;1.80;;
39102;SDS011;24847;48.218;16.414;2024-03-23T18:59:08;2.83;;;1.30;;
39102;SDS011;24847;48.218;16.414;2024-03-23T19:04:10;2.55;;;1.85;;
39102;SDS011;24847;48.218;16.414;2024-03-23T19:09:14;2.17;;;1.30;;
39102;SDS011;24847;48.218;16.414;2024-03-23T19:14:16;1.23;;;1.00;;
39102;SDS011;24847;48.218;16.414;2024-03-23T19:19:19;1.42;;;1.20;;
39102;SDS011;24847;48.218;16.414;2024-03-23T19:24:22;1.20;;;1.10;;
39102;SDS011;24847;48.218;16.414;2024-03-23T19:29:24;1.38;;;1.00;;
39102;SDS011;24847;48.218;16.414;2024-03-23T19:34:27;1.55;;;1.25;;
39102;SDS011;24847;48.218;16.414;2024-03-23T19:39:30;2.33;;;1.33;;
39102;SDS011;24847;48.218;16.414;2024-03-23T19:44:33;2.78;;;1.50;;
39102;SDS011;24847;48.218;16.414;2024-03-23T19:49:35;1.90;;;1.73;;
39102;SDS011;24847;48.218;16.414;2024-03-23T19:54:39;1.73;;;1.58;;
39102;SDS011;24847;48.218;16.414;2024-03-23T19:59:41;1.35;;;1.15;;
39102;SDS011;24847;48.218;16.414;2024-03-23T20:04:44;2.15;;;1.10;;
39102;SDS011;24847;48.218;16.414;2024-03-23T20:09:49;1.27;;;0.98;;
39102;SDS011;24847;48.218;16.414;2024-03-23T20:14:51;0.85;;;0.80;;
39102;SDS011;24847;48.218;16.414;2024-03-23T20:19:54;0.77;;;0.75;;
39102;SDS011;24847;48.218;16.414;2024-03-23T20:24:58;1.20;;;0.90;;
39102;SDS011;24847;48.218;16.414;2024-03-23T20:30:16;1.35;;;0.90;;
39102;SDS011;24847;48.218;16.414;2024-03-23T20:35:18;1.20;;;0.80;;
39102;SDS011;24847;48.218;16.414;2024-03-23T20:40:22;1.20;;;0.82;;
39102;SDS011;24847;48.218;16.414;2024-03-23T20:45:24;1.00;;;0.90;;
39102;SDS011;24847;48.218;16.414;2024-03-23T20:50:26;1.38;;;0.93;;
39102;SDS011;24847;48.218;16.414;2024-03-23T20:55:30;1.23;;;1.00;;
39102;SDS011;24847;48.218;16.414;2024-03-23T21:00:32;0.98;;;0.82;;
39102;SDS011;24847;48.218;16.414;2024-03-23T21:05:35;1.23;;;0.85;;
39102;SDS011;24847;48.218;16.414;2024-03-23T21:10:39;1.05;;;0.82;;
39102;SDS011;24847;48.218;16.414;2024-03-23T21:15:49;1.98;;;0.73;;
39102;SDS011;24847;48.218;16.414;2024-03-23T21:20:53;0.80;;;0.80;;
39102;SDS011;24847;48.218;16.414;2024-03-23T21:25:58;1.20;;;0.90;;
39102;SDS011;24847;48.218;16.414;2024-03-23T21:31:03;1.20;;;0.95;;
39102;SDS011;24847;48.218;16.414;2024-03-23T21:36:06;1.58;;;1.10;;
39102;SDS011;24847;48.218;16.414;2024-03-23T21:41:10;3.30;;;1.00;;
39102;SDS011;24847;48.218;16.414;2024-03-23T21:46:12;1.70;;;1.17;;
39102;SDS011;24847;48.218;16.414;2024-03-23T21:51:14;1.35;;;1.20;;
39102;SDS011;24847;48.218;16.414;2024-03-23T21:56:19;2.75;;;1.95;;
39102;SDS011;24847;48.218;16.414;2024-03-23T22:01:21;3.22;;;1.33;;
39102;SDS011;24847;48.218;16.414;2024-03-23T22:06:23;2.05;;;1.65;;
39102;SDS011;24847;48.218;16.414;2024-03-23T22:11:27;4.38;;;3.28;;
39102;SDS011;24847;48.218;16.414;2024-03-23T22:16:29;4.55;;;3.00;;
39102;SDS011;24847;48.218;16.414;2024-03-23T22:21:31;8.07;;;4.80;;
39102;SDS011;24847;48.218;16.414;2024-03-23T22:26:35;12.02;;;7.25;;
39102;SDS011;24847;48.218;16.414;2024-03-23T22:31:37;6.65;;;4.00;;
39102;SDS011;24847;48.218;16.414;2024-03-23T22:36:39;14.48;;;9.00;;
39102;SDS011;24847;48.218;16.414;2024-03-23T22:41:43;8.40;;;5.68;;
39102;SDS011;24847;48.218;16.414;2024-03-23T22:46:45;4.95;;;3.75;;
39102;SDS011;24847;48.218;16.414;2024-03-23T22:51:47;2.95;;;1.90;;
39102;SDS011;24847;48.218;16.414;2024-03-23T22:56:51;1.63;;;1.30;;
39102;SDS011;24847;48.218;16.414;2024-03-23T23:01:53;1.70;;;1.20;;
39102;SDS011;24847;48.218;16.414;2024-03-23T23:06:55;1.65;;;1.50;;
39102;SDS011;24847;48.218;16.414;2024-03-23T23:11:59;1.83;;;1.20;;
39102;SDS011;24847;48.218;16.414;2024-03-23T23:17:01;2.05;;;1.20;;
39102;SDS011;24847;48.218;16.414;2024-03-23T23:22:03;2.78;;;1.33;;
39102;SDS011;24847;48.218;16.414;2024-03-23T23:27:07;2.47;;;1.15;;
39102;SDS011;24847;48.218;16.414;2024-03-23T23:32:09;1.48;;;1.20;;
39102;SDS011;24847;48.218;16.414;2024-03-23T23:37:11;2.80;;;1.20;;
39102;SDS011;24847;48.218;16.414;2024-03-23T23:42:14;1.30;;;0.85;;
39102;SDS011;24847;48.218;16.414;2024-03-23T23:47:16;1.30;;;1.02;;
39102;SDS011;24847;48.218;16.414;2024-03-23T23:52:19;2.03;;;0.93;;
39102;SDS011;24847;48.218;16.414;2024-03-23T23:57:22;1.20;;;0.90;;
